Time;durP1;ratioP1;P1;durP2;ratioP2;P2;SDS_P1;SDS_P2;PMS_P1;PMS_P2;Temp;Humidity;BMP_temperature;BMP_pressure;BME280_temperature;BME280_humidity;BME280_pressure;Samples;Min_cycle;Max_cycle;Signal;HPM_P1;HPM_P2
2021/11/05 00:00:32;;;;;;;0.20;0.20;;;;;;;5.98;100.00;100260.53;5067409;28;20424;-80
2021/11/05 00:03:01;;;;;;;0.30;0.30;;;;;;;5.99;100.00;100256.72;5069257;28;20052;-81
2021/11/05 00:05:36;;;;;;;0.22;0.22;;;;;;;5.86;100.00;100257.16;5096197;28;20408;-81
2021/11/05 00:08:08;;;;;;;0.28;0.28;;;;;;;5.92;100.00;100261.50;5064746;28;20048;-83
2021/11/05 00:10:38;;;;;;;0.20;0.20;;;;;;;5.84;100.00;100252.03;5066007;28;20053;-85
2021/11/05 00:13:09;;;;;;;0.20;0.20;;;;;;;5.76;100.00;100249.78;5065979;28;20429;-83
2021/11/05 00:15:44;;;;;;;0.30;0.30;;;;;;;5.90;100.00;100269.88;5087887;28;20062;-80
2021/11/05 00:18:12;;;;;;;0.30;0.30;;;;;;;5.76;100.00;100247.09;5069166;28;20052;-81
2021/11/05 00:20:42;;;;;;;0.20;0.20;;;;;;;5.89;100.00;100276.34;5085003;28;20054;-81
2021/11/05 00:23:10;;;;;;;0.20;0.20;;;;;;;5.91;100.00;100276.06;5082862;28;20396;-81
2021/11/05 00:25:39;;;;;;;0.20;0.20;;;;;;;5.97;100.00;100291.25;5083869;28;20413;-80
2021/11/05 00:28:07;;;;;;;0.20;0.20;;;;;;;5.94;100.00;100297.19;5083768;28;20056;-83
2021/11/05 00:30:37;;;;;;;0.20;0.20;;;;;;;5.81;100.00;100282.22;5069552;28;20048;-82
2021/11/05 00:33:05;;;;;;;0.20;0.20;;;;;;;5.77;100.00;100273.00;5101965;28;20056;-81
2021/11/05 00:35:33;;;;;;;0.20;0.20;;;;;;;5.81;100.00;100278.72;5070890;28;20044;-80
2021/11/05 00:38:08;;;;;;;0.30;0.30;;;;;;;5.92;100.00;100299.31;5084546;28;20045;-81
2021/11/05 00:40:42;;;;;;;0.30;0.30;;;;;;;5.87;100.00;100307.38;5101083;27;20044;-83
2021/11/05 00:43:10;;;;;;;0.20;0.20;;;;;;;5.67;100.00;100287.22;5074111;28;20048;-82
2021/11/05 00:45:39;;;;;;;0.20;0.20;;;;;;;5.77;100.00;100314.34;5072896;28;20048;-80
2021/11/05 00:48:07;;;;;;;0.30;0.30;;;;;;;5.87;100.00;100318.19;5070812;28;20040;-80
2021/11/05 00:50:36;;;;;;;0.30;0.30;;;;;;;5.84;100.00;100330.34;5068943;28;20040;-81
2021/11/05 00:53:11;;;;;;;0.22;0.22;;;;;;;5.83;100.00;100330.56;5070462;28;20041;-82
2021/11/05 00:55:44;;;;;;;0.30;0.30;;;;;;;5.73;100.00;100321.31;5068749;28;20420;-80
2021/11/05 00:58:19;;;;;;;0.10;0.10;;;;;;;5.61;100.00;100307.97;5070095;28;20043;-84
2021/11/05 01:00:48;;;;;;;0.30;0.30;;;;;;;5.75;100.00;100343.47;5074120;28;20047;-81
2021/11/05 01:03:16;;;;;;;0.20;0.20;;;;;;;5.71;100.00;100347.75;5087604;28;20059;-81
2021/11/05 01:05:44;;;;;;;0.20;0.20;;;;;;;5.73;100.00;100344.78;5077557;28;20917;-82
2021/11/05 01:08:14;;;;;;;0.30;0.30;;;;;;;5.71;100.00;100352.34;5085021;28;20040;-83
2021/11/05 01:10:42;;;;;;;0.20;0.20;;;;;;;5.75;100.00;100351.56;5076834;28;20056;-80
2021/11/05 01:13:11;;;;;;;0.20;0.20;;;;;;;5.66;100.00;100349.59;5081155;28;20503;-83
2021/11/05 01:15:45;;;;;;;0.20;0.20;;;;;;;5.75;100.00;100354.28;5078710;28;20071;-81
2021/11/05 01:18:20;;;;;;;0.20;0.20;;;;;;;5.70;100.00;100359.59;5074809;28;20044;-81
2021/11/05 01:20:48;;;;;;;0.30;0.30;;;;;;;5.56;100.00;100337.59;5075898;28;20048;-83
2021/11/05 01:23:21;;;;;;;0.20;0.20;;;;;;;5.66;100.00;100360.38;5091612;28;20068;-82
2021/11/05 01:25:49;;;;;;;0.30;0.30;;;;;;;5.60;100.00;100364.91;5079514;28;20059;-81
2021/11/05 01:28:18;;;;;;;0.20;0.20;;;;;;;5.61;100.00;100370.06;5072179;28;20047;-83
2021/11/05 01:30:47;;;;;;;0.20;0.20;;;;;;;5.56;100.00;100378.09;5081739;28;20052;-81
2021/11/05 01:33:16;;;;;;;0.30;0.30;;;;;;;5.58;100.00;100375.16;5084493;28;20048;-82
2021/11/05 01:35:45;;;;;;;0.30;0.30;;;;;;;5.57;100.00;100381.63;5079958;28;20051;-81
2021/11/05 01:38:13;;;;;;;0.20;0.20;;;;;;;5.54;100.00;100382.16;5093398;28;20047;-83
2021/11/05 01:40:48;;;;;;;0.30;0.30;;;;;;;5.56;100.00;100388.09;5074101;28;20052;-83
2021/11/05 01:43:16;;;;;;;0.20;0.20;;;;;;;5.58;100.00;100391.38;5076196;28;20265;-82
2021/11/05 01:45:47;;;;;;;0.20;0.20;;;;;;;5.50;100.00;100392.63;5084877;28;20067;-82
2021/11/05 01:48:16;;;;;;;0.20;0.20;;;;;;;5.50;100.00;100406.13;5072179;28;20066;-82
2021/11/05 01:50:44;;;;;;;0.20;0.20;;;;;;;5.22;100.00;100385.53;5075990;28;20064;-84
2021/11/05 01:53:14;;;;;;;0.25;0.25;;;;;;;5.30;100.00;100400.47;5074516;28;20063;-82
2021/11/05 01:55:49;;;;;;;0.20;0.20;;;;;;;5.28;100.00;100409.63;5076406;28;20044;-83
2021/11/05 01:58:24;;;;;;;0.25;0.25;;;;;;;5.10;100.00;100397.28;5065162;28;20043;-84
2021/11/05 02:00:58;;;;;;;0.20;0.20;;;;;;;5.19;100.00;100421.13;5087765;28;20052;-82
2021/11/05 02:03:32;;;;;;;0.22;0.22;;;;;;;5.07;100.00;100413.16;5066785;28;20053;-82
2021/11/05 02:06:01;;;;;;;0.20;0.20;;;;;;;5.05;100.00;100404.47;5064210;28;20056;-83
2021/11/05 02:08:40;;;;;;;0.30;0.30;;;;;;;5.17;100.00;100424.06;5069285;28;20044;-85
2021/11/05 02:11:11;;;;;;;0.20;0.20;;;;;;;5.12;100.00;100418.59;5066740;28;20044;-82
2021/11/05 02:13:42;;;;;;;0.20;0.20;;;;;;;4.99;100.00;100402.81;5064502;28;20440;-83
2021/11/05 02:16:12;;;;;;;0.30;0.30;;;;;;;5.11;100.00;100433.97;5071274;28;20059;-82
2021/11/05 02:18:46;;;;;;;0.20;0.20;;;;;;;5.06;100.00;100439.28;5070020;28;20068;-82
2021/11/05 02:21:17;;;;;;;0.20;0.20;;;;;;;5.01;100.00;100436.53;5055761;28;20509;-82
2021/11/05 02:23:47;;;;;;;0.20;0.20;;;;;;;4.98;100.00;100437.03;5064734;28;20060;-82
2021/11/05 02:26:15;;;;;;;0.30;0.30;;;;;;;4.97;100.00;100451.56;5064776;28;20484;-82
2021/11/05 02:28:48;;;;;;;0.20;0.20;;;;;;;4.95;100.00;100448.31;5072389;28;20052;-81
2021/11/05 02:31:22;;;;;;;0.30;0.30;;;;;;;4.90;100.00;100457.16;5060488;28;20424;-82
2021/11/05 02:33:50;;;;;;;0.30;0.30;;;;;;;4.91;100.00;100450.69;5076333;28;20045;-81
2021/11/05 02:36:23;;;;;;;0.30;0.30;;;;;;;4.79;100.00;100446.47;5093424;28;20053;-82
2021/11/05 02:38:53;;;;;;;0.20;0.20;;;;;;;4.83;100.00;100453.00;5060320;28;20056;-82
2021/11/05 02:41:26;;;;;;;0.30;0.30;;;;;;;4.68;100.00;100446.31;5059172;28;20498;-81
2021/11/05 02:44:00;;;;;;;0.20;0.20;;;;;;;4.68;100.00;100453.56;5065280;28;20049;-83
2021/11/05 02:46:28;;;;;;;0.20;0.20;;;;;;;4.65;100.00;100456.75;5066555;28;20051;-81
2021/11/05 02:49:06;;;;;;;0.28;0.28;;;;;;;4.70;100.00;100467.63;5059278;28;20055;-82
2021/11/05 02:51:35;;;;;;;0.20;0.20;;;;;;;4.52;100.00;100439.06;5067761;28;20488;-83
2021/11/05 02:54:06;;;;;;;0.30;0.30;;;;;;;4.67;100.00;100484.28;5075357;28;20650;-81
2021/11/05 02:56:34;;;;;;;0.30;0.30;;;;;;;4.66;100.00;100471.88;5063102;28;20045;-82
2021/11/05 02:59:03;;;;;;;0.30;0.30;;;;;;;4.60;100.00;100482.56;5067368;28;20495;-82
2021/11/05 03:01:32;;;;;;;0.30;0.30;;;;;;;4.58;100.00;100483.88;5077300;28;20415;-81
2021/11/05 03:04:02;;;;;;;0.30;0.30;;;;;;;4.63;100.00;100483.13;5071822;28;20052;-82
2021/11/05 03:06:37;;;;;;;0.20;0.20;;;;;;;4.63;100.00;100492.06;5074282;28;20056;-82
2021/11/05 03:09:26;;;;;;;0.25;0.25;;;;;;;4.57;100.00;100509.19;5060871;28;20076;-82
2021/11/05 03:11:54;;;;;;;0.20;0.20;;;;;;;4.53;100.00;100506.19;5067632;28;20044;-82
2021/11/05 03:14:22;;;;;;;0.25;0.25;;;;;;;4.56;100.00;100508.38;5097822;28;20563;-83
2021/11/05 03:16:50;;;;;;;0.22;0.22;;;;;;;4.49;100.00;100501.50;5067717;28;20052;-82
2021/11/05 03:19:19;;;;;;;0.30;0.30;;;;;;;4.60;100.00;100519.50;5067527;28;20071;-82
2021/11/05 03:21:53;;;;;;;0.25;0.25;;;;;;;4.49;100.00;100506.88;5081149;28;20048;-82
2021/11/05 03:24:27;;;;;;;0.20;0.20;;;;;;;4.55;100.00;100514.81;5083426;28;20072;-83
2021/11/05 03:27:01;;;;;;;0.22;0.22;;;;;;;4.61;100.00;100523.81;5067798;28;20049;-82
2021/11/05 03:29:34;;;;;;;0.30;0.30;;;;;;;4.63;100.00;100527.09;5065749;28;20047;-82
2021/11/05 03:32:08;;;;;;;0.20;0.20;;;;;;;4.56;100.00;100529.94;5065914;28;20048;-83
2021/11/05 03:34:42;;;;;;;0.22;0.22;;;;;;;4.63;100.00;100545.13;5081273;28;20060;-83
2021/11/05 03:37:15;;;;;;;0.25;0.25;;;;;;;4.59;100.00;100540.22;5066810;28;20044;-83
2021/11/05 03:39:50;;;;;;;0.30;0.30;;;;;;;4.51;100.00;100537.13;5094072;28;20765;-82
2021/11/05 03:42:18;;;;;;;0.20;0.20;;;;;;;4.59;100.00;100545.63;5062508;28;20052;-82
2021/11/05 03:44:51;;;;;;;0.25;0.25;;;;;;;4.58;100.00;100551.25;5066597;28;20056;-82
2021/11/05 03:47:25;;;;;;;0.22;0.22;;;;;;;4.62;100.00;100551.59;5097970;28;20052;-82
2021/11/05 03:50:01;;;;;;;0.20;0.20;;;;;;;4.58;100.00;100560.19;5065573;28;20040;-82
2021/11/05 03:52:29;;;;;;;0.20;0.20;;;;;;;4.70;100.00;100568.19;5068252;28;20037;-83
2021/11/05 03:55:05;;;;;;;0.20;0.20;;;;;;;4.66;100.00;100563.53;5069838;28;20036;-82
2021/11/05 03:57:33;;;;;;;0.30;0.30;;;;;;;4.71;100.00;100575.22;5068743;28;20083;-83
2021/11/05 04:00:07;;;;;;;0.22;0.22;;;;;;;4.64;100.00;100579.09;5068642;28;20302;-83
2021/11/05 04:02:41;;;;;;;0.30;0.30;;;;;;;4.56;100.00;100580.34;5067028;28;20052;-83
2021/11/05 04:05:09;;;;;;;0.20;0.20;;;;;;;4.50;100.00;100582.13;5066559;28;20045;-83
2021/11/05 04:07:38;;;;;;;0.28;0.28;;;;;;;4.58;100.00;100603.31;5068099;28;20439;-83
2021/11/05 04:10:13;;;;;;;0.10;0.10;;;;;;;4.52;100.00;100596.16;5070925;28;20059;-83
2021/11/05 04:12:46;;;;;;;0.30;0.30;;;;;;;4.62;100.00;100610.91;5074800;28;20510;-83
2021/11/05 04:15:19;;;;;;;0.30;0.30;;;;;;;4.70;100.00;100616.69;5067821;28;20048;-82
2021/11/05 04:17:53;;;;;;;0.20;0.20;;;;;;;4.62;100.00;100621.69;5069558;28;20049;-82
2021/11/05 04:20:26;;;;;;;0.22;0.22;;;;;;;4.56;100.00;100610.00;5072404;28;20512;-83
2021/11/05 04:23:04;;;;;;;0.20;0.20;;;;;;;4.51;100.00;100607.19;5083851;28;20048;-82
2021/11/05 04:25:34;;;;;;;0.20;0.20;;;;;;;4.40;100.00;100603.47;5071218;28;20044;-81
2021/11/05 04:28:08;;;;;;;0.28;0.28;;;;;;;4.55;100.00;100635.28;5070205;28;20044;-83
2021/11/05 04:30:37;;;;;;;0.20;0.20;;;;;;;4.49;100.00;100634.38;5070118;28;20064;-84
2021/11/05 04:33:06;;;;;;;0.20;0.20;;;;;;;4.52;100.00;100638.47;5068905;28;20049;-83
2021/11/05 04:35:34;;;;;;;0.20;0.20;;;;;;;4.42;100.00;100633.72;5070703;28;20052;-83
2021/11/05 04:38:03;;;;;;;0.20;0.20;;;;;;;4.52;100.00;100646.56;5088404;28;20515;-82
2021/11/05 04:40:38;;;;;;;0.22;0.22;;;;;;;4.46;100.00;100644.81;5065169;28;20071;-82
2021/11/05 04:43:07;;;;;;;0.20;0.20;;;;;;;4.45;100.00;100649.41;5069866;28;20059;-83
2021/11/05 04:45:40;;;;;;;0.20;0.20;;;;;;;4.44;100.00;100653.13;5068260;28;20055;-83
2021/11/05 04:48:08;;;;;;;0.28;0.28;;;;;;;4.40;100.00;100663.56;5066977;28;20056;-83
2021/11/05 04:50:37;;;;;;;0.20;0.20;;;;;;;4.43;100.00;100657.72;5077497;28;20060;-82
2021/11/05 04:53:10;;;;;;;0.20;0.20;;;;;;;4.45;100.00;100670.94;5066862;28;20472;-83
2021/11/05 04:55:45;;;;;;;0.20;0.20;;;;;;;4.38;100.00;100675.66;5100838;28;20056;-82
2021/11/05 04:58:18;;;;;;;0.30;0.30;;;;;;;4.39;100.00;100671.88;5069635;28;20059;-82
2021/11/05 05:00:46;;;;;;;0.20;0.20;;;;;;;4.42;100.00;100690.31;5070384;28;20052;-82
2021/11/05 05:03:14;;;;;;;0.30;0.30;;;;;;;4.43;100.00;100694.59;5067367;28;20060;-82
2021/11/05 05:05:48;;;;;;;0.20;0.20;;;;;;;4.46;100.00;100685.22;5070507;28;21094;-84
2021/11/05 05:08:16;;;;;;;0.20;0.20;;;;;;;4.40;100.00;100687.00;5069990;28;20044;-85
2021/11/05 05:10:51;;;;;;;0.20;0.20;;;;;;;4.42;100.00;100684.91;5068390;28;20052;-83
2021/11/05 05:13:25;;;;;;;0.20;0.20;;;;;;;4.51;100.00;100698.81;5068367;28;20036;-82
2021/11/05 05:15:53;;;;;;;0.20;0.20;;;;;;;4.52;100.00;100703.97;5068852;28;20056;-83
2021/11/05 05:18:26;;;;;;;0.30;0.30;;;;;;;4.61;100.00;100709.78;5069129;28;20056;-83
2021/11/05 05:20:54;;;;;;;0.30;0.30;;;;;;;4.63;100.00;100717.63;5067607;28;20040;-82
2021/11/05 05:23:27;;;;;;;0.20;0.20;;;;;;;4.57;100.00;100701.38;5076611;28;20051;-84
2021/11/05 05:25:57;;;;;;;0.30;0.30;;;;;;;4.66;100.00;100714.47;5064462;28;20514;-83
2021/11/05 05:28:25;;;;;;;0.20;0.20;;;;;;;4.66;100.00;100712.59;5069662;28;20064;-82
2021/11/05 05:30:59;;;;;;;0.20;0.20;;;;;;;4.60;100.00;100717.06;5071835;28;20044;-82
2021/11/05 05:33:32;;;;;;;0.30;0.30;;;;;;;4.66;100.00;100726.06;5064528;28;20055;-82
2021/11/05 05:36:06;;;;;;;0.20;0.20;;;;;;;4.51;100.00;100702.31;5070133;28;20044;-82
2021/11/05 05:38:40;;;;;;;0.25;0.25;;;;;;;4.57;100.00;100716.72;5071258;28;20051;-82
2021/11/05 05:41:11;;;;;;;0.20;0.20;;;;;;;4.50;100.00;100726.81;5068005;28;20048;-83
2021/11/05 05:43:40;;;;;;;0.20;0.20;;;;;;;4.49;100.00;100734.09;5072216;28;20056;-82
2021/11/05 05:46:09;;;;;;;0.20;0.20;;;;;;;4.45;100.00;100737.47;5097937;27;20048;-82
2021/11/05 05:48:37;;;;;;;0.20;0.20;;;;;;;4.35;100.00;100727.31;5070219;28;20083;-82
2021/11/05 05:51:10;;;;;;;0.30;0.30;;;;;;;4.47;100.00;100749.66;5066379;28;20405;-83
2021/11/05 05:53:44;;;;;;;0.20;0.20;;;;;;;4.45;100.00;100753.66;5069270;28;20045;-83
2021/11/05 05:56:13;;;;;;;0.30;0.30;;;;;;;4.34;100.00;100753.44;5077407;28;20045;-82
2021/11/05 05:58:46;;;;;;;0.22;0.22;;;;;;;4.42;100.00;100758.47;5069873;28;20056;-84
2021/11/05 06:01:15;;;;;;;0.17;0.17;;;;;;;4.28;100.00;100734.72;5068307;28;20045;-82
2021/11/05 06:03:48;;;;;;;0.20;0.20;;;;;;;4.39;100.00;100767.03;5088609;28;20066;-84
2021/11/05 06:06:21;;;;;;;0.20;0.20;;;;;;;4.28;100.00;100761.66;5071808;28;20044;-82
2021/11/05 06:08:55;;;;;;;0.20;0.20;;;;;;;4.36;100.00;100783.66;5086872;28;20056;-82
2021/11/05 06:11:29;;;;;;;0.30;0.30;;;;;;;4.30;100.00;100757.66;5068669;28;20041;-83
2021/11/05 06:14:03;;;;;;;0.30;0.30;;;;;;;4.21;100.00;100769.84;5099131;28;20053;-82
2021/11/05 06:16:31;;;;;;;0.30;0.30;;;;;;;4.35;100.00;100786.59;5068188;28;20419;-82
2021/11/05 06:19:04;;;;;;;0.20;0.20;;;;;;;4.36;100.00;100791.75;5067272;28;20041;-82
2021/11/05 06:21:33;;;;;;;0.20;0.20;;;;;;;4.35;100.00;100787.44;5064644;28;20060;-83
2021/11/05 06:24:01;;;;;;;0.30;0.30;;;;;;;4.48;100.00;100793.63;5071164;28;20504;-84
2021/11/05 06:26:31;;;;;;;0.20;0.20;;;;;;;4.33;100.00;100797.59;5072167;28;20044;-81
2021/11/05 06:29:04;;;;;;;0.20;0.20;;;;;;;4.36;100.00;100807.09;5068190;28;20063;-82
2021/11/05 06:31:33;;;;;;;0.30;0.30;;;;;;;4.40;100.00;100813.66;5071217;28;20041;-84
2021/11/05 06:34:07;;;;;;;0.30;0.30;;;;;;;4.42;100.00;100827.72;5097360;28;20476;-84
2021/11/05 06:36:42;;;;;;;0.20;0.20;;;;;;;4.43;100.00;100822.09;5071246;28;20424;-83
2021/11/05 06:39:15;;;;;;;0.20;0.20;;;;;;;4.33;100.00;100821.84;5083154;28;20412;-83
2021/11/05 06:41:50;;;;;;;0.20;0.20;;;;;;;4.26;100.00;100826.53;5067502;28;20048;-83
2021/11/05 06:44:23;;;;;;;0.20;0.20;;;;;;;4.24;100.00;100834.06;5067672;28;20056;-83
2021/11/05 06:46:57;;;;;;;0.30;0.30;;;;;;;4.28;100.00;100842.47;5063004;28;20059;-80
2021/11/05 06:49:31;;;;;;;0.22;0.22;;;;;;;4.21;100.00;100838.03;5079337;28;20044;-85
2021/11/05 06:51:59;;;;;;;0.30;0.30;;;;;;;4.23;100.00;100840.50;5073868;28;20537;-87
2021/11/05 06:54:27;;;;;;;0.20;0.20;;;;;;;4.28;100.00;100848.69;5093782;28;20063;-85
2021/11/05 06:57:02;;;;;;;0.20;0.20;;;;;;;4.31;100.00;100850.91;5057367;28;20040;-88
2021/11/05 06:59:36;;;;;;;0.20;0.20;;;;;;;4.30;100.00;100849.28;5070139;28;20048;-87
2021/11/05 07:02:10;;;;;;;0.20;0.20;;;;;;;4.36;100.00;100852.91;5070874;28;20048;-87
2021/11/05 07:04:43;;;;;;;0.20;0.20;;;;;;;4.36;100.00;100856.41;5050759;28;20067;-86
2021/11/05 07:07:11;;;;;;;0.30;0.30;;;;;;;4.38;100.00;100861.59;5064609;28;20049;-83
2021/11/05 07:09:44;;;;;;;0.20;0.20;;;;;;;4.34;100.00;100857.72;5088931;28;20051;-88
2021/11/05 07:12:19;;;;;;;0.20;0.20;;;;;;;4.48;100.00;100861.00;5071908;28;20045;-86
2021/11/05 07:14:52;;;;;;;0.20;0.20;;;;;;;4.37;100.00;100874.22;5086438;28;20068;-86
2021/11/05 07:17:27;;;;;;;0.30;0.30;;;;;;;4.31;100.00;100877.88;5048635;28;20501;-82
2021/11/05 07:20:01;;;;;;;0.30;0.30;;;;;;;4.26;100.00;100881.22;5064074;28;20050;-83
2021/11/05 07:22:36;;;;;;;0.20;0.20;;;;;;;4.36;100.00;100888.75;5037641;28;20705;-83
2021/11/05 07:25:12;;;;;;;0.25;0.25;;;;;;;4.34;100.00;100898.94;5042213;28;20053;-86
2021/11/05 07:27:43;;;;;;;0.25;0.25;;;;;;;4.34;100.00;100898.94;5050402;28;20064;-85
2021/11/05 07:30:18;;;;;;;0.20;0.20;;;;;;;4.33;100.00;100905.38;5071946;28;20058;-86
2021/11/05 07:32:52;;;;;;;0.20;0.20;;;;;;;4.37;100.00;100908.44;5047393;28;20057;-84
2021/11/05 07:35:25;;;;;;;0.20;0.20;;;;;;;4.41;100.00;100904.22;5048489;28;20060;-85
2021/11/05 07:37:59;;;;;;;0.30;0.30;;;;;;;4.42;100.00;100911.25;5054917;28;20512;-84
2021/11/05 07:40:28;;;;;;;0.30;0.30;;;;;;;4.42;100.00;100916.66;5063774;28;20056;-83
2021/11/05 07:42:58;;;;;;;0.20;0.20;;;;;;;4.47;100.00;100919.44;5054006;28;20055;-84
2021/11/05 07:45:31;;;;;;;0.30;0.30;;;;;;;4.49;100.00;100930.00;5057298;28;20048;-87
2021/11/05 07:48:06;;;;;;;0.20;0.20;;;;;;;4.62;100.00;100926.28;5062198;28;20589;-84
2021/11/05 07:50:39;;;;;;;0.20;0.20;;;;;;;4.50;100.00;100931.66;5082189;28;20056;-85
2021/11/05 07:53:09;;;;;;;0.20;0.20;;;;;;;4.49;100.00;100916.50;5053698;28;20060;-84
2021/11/05 07:55:43;;;;;;;0.22;0.22;;;;;;;4.60;100.00;100937.28;5079210;28;20057;-82
2021/11/05 07:58:17;;;;;;;0.20;0.20;;;;;;;4.74;100.00;100938.69;5072717;28;20052;-85
2021/11/05 08:00:47;;;;;;;0.35;0.35;;;;;;;4.72;100.00;100930.03;5053665;28;20504;-88
2021/11/05 08:03:21;;;;;;;0.25;0.25;;;;;;;4.93;100.00;100954.75;5050179;28;20041;-83
2021/11/05 08:05:55;;;;;;;0.30;0.30;;;;;;;5.17;100.00;100955.53;5082332;28;20061;-83
2021/11/05 08:08:29;;;;;;;0.20;0.20;;;;;;;5.30;100.00;100953.66;5051693;28;20049;-85
2021/11/05 08:11:02;;;;;;;0.35;0.35;;;;;;;5.40;100.00;100952.00;5048078;28;20300;-85
2021/11/05 08:13:33;;;;;;;0.30;0.30;;;;;;;5.53;100.00;100969.78;5050965;28;20401;-84
2021/11/05 08:16:06;;;;;;;0.30;0.30;;;;;;;5.56;100.00;100966.59;5051549;28;20056;-82
2021/11/05 08:18:43;;;;;;;0.30;0.30;;;;;;;5.48;100.00;100969.69;5064775;28;20057;-81
2021/11/05 08:21:17;;;;;;;0.28;0.28;;;;;;;5.39;100.00;100963.03;5061771;28;20053;-82
2021/11/05 08:23:50;;;;;;;0.22;0.22;;;;;;;5.51;100.00;100982.72;5075717;28;20094;-85
2021/11/05 08:26:25;;;;;;;0.28;0.28;;;;;;;5.56;100.00;100984.69;5059929;28;20413;-87
2021/11/05 08:28:55;;;;;;;0.20;0.20;;;;;;;5.62;100.00;100983.72;5050637;28;20068;-83
2021/11/05 08:31:28;;;;;;;0.20;0.20;;;;;;;5.64;100.00;100976.22;5055513;28;20045;-82
2021/11/05 08:34:02;;;;;;;0.25;0.25;;;;;;;5.74;100.00;100978.31;5057880;28;20068;-84
2021/11/05 08:36:36;;;;;;;0.20;0.20;;;;;;;5.75;100.00;100980.75;5054930;28;20405;-84
2021/11/05 08:39:10;;;;;;;0.20;0.20;;;;;;;5.78;100.00;100984.84;5059527;28;20044;-84
2021/11/05 08:41:42;;;;;;;0.20;0.20;;;;;;;5.87;100.00;100994.22;5054752;28;20061;-84
2021/11/05 08:44:22;;;;;;;;;;;;;;;6.07;100.00;101006.50;5075583;28;20055;-82
2021/11/05 08:46:50;;;;;;;0.20;0.20;;;;;;;6.19;100.00;100999.19;5081775;28;20664;-87
2021/11/05 08:49:22;;;;;;;0.20;0.20;;;;;;;6.28;100.00;100992.31;5048631;28;20609;-83
2021/11/05 08:51:56;;;;;;;0.30;0.30;;;;;;;6.37;100.00;101013.56;5055922;28;20044;-85
2021/11/05 08:54:27;;;;;;;0.20;0.20;;;;;;;6.27;100.00;100989.84;5046679;28;20346;-82
2021/11/05 08:56:57;;;;;;;0.30;0.30;;;;;;;6.72;100.00;101029.53;5048646;28;20053;-87
2021/11/05 08:59:31;;;;;;;0.20;0.20;;;;;;;6.72;100.00;101029.53;5051192;28;20053;-86
2021/11/05 09:02:06;;;;;;;0.15;0.15;;;;;;;6.84;100.00;101029.47;5053365;28;20059;-87
2021/11/05 09:04:35;;;;;;;0.28;0.28;;;;;;;6.88;100.00;101030.63;5041660;28;20053;-85
2021/11/05 09:07:08;;;;;;;0.20;0.20;;;;;;;6.95;100.00;101036.69;5041243;28;20049;-82
2021/11/05 09:09:42;;;;;;;0.25;0.25;;;;;;;6.93;100.00;101038.00;5045953;28;20452;-84
2021/11/05 09:12:15;;;;;;;0.20;0.20;;;;;;;6.89;100.00;101026.84;5052561;28;20063;-83
2021/11/05 09:14:45;;;;;;;0.20;0.20;;;;;;;7.11;100.00;101042.31;5056350;28;20103;-83
2021/11/05 09:17:14;;;;;;;0.20;0.20;;;;;;;7.20;100.00;101045.44;5053426;28;20057;-85
2021/11/05 09:19:42;;;;;;;0.30;0.30;;;;;;;7.09;100.00;101034.44;5053894;28;20056;-83
2021/11/05 09:22:16;;;;;;;0.30;0.30;;;;;;;7.22;100.00;101054.97;5069298;28;20550;-83
2021/11/05 09:24:51;;;;;;;0.22;0.22;;;;;;;7.32;100.00;101062.41;5046232;28;20053;-85
2021/11/05 09:27:26;;;;;;;0.20;0.20;;;;;;;7.31;100.00;101061.56;5041511;28;20060;-83
2021/11/05 09:30:02;;;;;;;0.20;0.20;;;;;;;7.31;100.00;101058.88;5046518;28;20514;-85
2021/11/05 09:32:37;;;;;;;0.20;0.20;;;;;;;7.17;100.00;101046.75;5054812;28;20503;-85
2021/11/05 09:35:08;;;;;;;0.20;0.20;;;;;;;7.49;100.00;101071.31;5055098;28;20512;-82
2021/11/05 09:37:37;;;;;;;0.20;0.20;;;;;;;7.51;100.00;101081.06;5056008;28;20044;-84
2021/11/05 09:40:12;;;;;;;0.20;0.20;;;;;;;7.49;100.00;101065.88;5061895;28;20484;-86
2021/11/05 09:42:43;;;;;;;0.30;0.30;;;;;;;7.68;100.00;101087.28;5060194;28;20061;-85
2021/11/05 09:45:14;;;;;;;0.20;0.20;;;;;;;7.68;100.00;101084.56;5052683;28;20295;-84
2021/11/05 09:47:49;;;;;;;0.20;0.20;;;;;;;7.69;100.00;101093.50;5053213;28;20044;-85
2021/11/05 09:50:20;;;;;;;0.20;0.20;;;;;;;7.79;100.00;101090.97;5053078;28;20049;-84
2021/11/05 09:52:50;;;;;;;0.30;0.30;;;;;;;7.71;100.00;101075.94;5049134;28;20064;-84
2021/11/05 09:55:19;;;;;;;0.20;0.20;;;;;;;7.79;100.00;101085.53;5051738;28;20063;-84
2021/11/05 09:57:48;;;;;;;0.20;0.20;;;;;;;7.93;100.00;101089.50;5057689;28;20056;-84
2021/11/05 10:00:25;;;;;;;0.25;0.25;;;;;;;7.98;100.00;101096.88;5075378;28;20044;-83
2021/11/05 10:02:54;;;;;;;0.30;0.30;;;;;;;8.10;100.00;101110.31;5048818;28;20423;-83
2021/11/05 10:05:28;;;;;;;0.20;0.20;;;;;;;8.15;100.00;101104.94;5051061;28;20053;-83
2021/11/05 10:08:02;;;;;;;0.20;0.20;;;;;;;8.16;100.00;101093.84;5052065;28;20056;-85
2021/11/05 10:10:32;;;;;;;0.20;0.20;;;;;;;8.13;100.00;101098.94;5054044;28;20397;-84
2021/11/05 10:13:04;;;;;;;0.30;0.30;;;;;;;8.16;100.00;101107.41;5052823;28;20059;-81
2021/11/05 10:15:41;;;;;;;0.20;0.20;;;;;;;8.24;100.00;101108.03;5050109;28;20048;-83
2021/11/05 10:18:18;;;;;;;0.20;0.20;;;;;;;8.15;100.00;101097.63;5046581;28;20049;-85
2021/11/05 10:21:09;;;;;;;0.25;0.25;;;;;;;8.32;100.00;101116.50;5052690;28;20049;-86
2021/11/05 10:23:41;;;;;;;0.20;0.20;;;;;;;8.38;100.00;101116.59;5055390;28;20056;-85
2021/11/05 10:26:25;;;;;;;0.30;0.30;;;;;;;8.39;100.00;101121.75;5075829;28;20507;-84
2021/11/05 10:28:55;;;;;;;0.20;0.20;;;;;;;8.50;100.00;101122.72;5053052;28;20059;-86
2021/11/05 10:31:27;;;;;;;0.20;0.20;;;;;;;8.31;100.00;101106.78;5058008;28;20289;-85
2021/11/05 10:33:55;;;;;;;0.20;0.20;;;;;;;8.18;100.00;101083.56;5075871;28;20483;-86
2021/11/05 10:36:27;;;;;;;0.20;0.20;;;;;;;8.50;100.00;101104.53;5049626;28;20068;-84
2021/11/05 10:38:59;;;;;;;0.20;0.20;;;;;;;8.61;100.00;101120.94;5055863;28;20055;-88
2021/11/05 10:41:31;;;;;;;0.30;0.30;;;;;;;8.67;100.00;101133.47;5075531;28;20377;-82
2021/11/05 10:44:14;;;;;;;0.20;0.20;;;;;;;8.59;100.00;101134.75;5053199;28;20052;-86
2021/11/05 10:46:44;;;;;;;0.20;0.20;;;;;;;8.56;100.00;101110.84;5051196;28;20639;-85
2021/11/05 10:49:22;;;;;;;0.20;0.20;;;;;;;8.66;100.00;101146.22;5076159;28;20052;-85
2021/11/05 10:52:15;;;;;;;0.25;0.25;;;;;;;8.72;100.00;101152.53;5051537;28;20067;-85
2021/11/05 10:54:56;;;;;;;0.20;0.20;;;;;;;8.94;100.00;101143.50;5081520;28;20500;-82
2021/11/05 10:57:42;;;;;;;0.20;0.20;;;;;;;8.90;100.00;101155.97;5047230;28;20064;-83
2021/11/05 11:00:23;;;;;;;0.20;0.20;;;;;;;8.87;100.00;101160.00;5047781;28;20048;-84
2021/11/05 11:02:52;;;;;;;0.20;0.20;;;;;;;8.83;100.00;101153.44;5049664;28;20060;-83
2021/11/05 11:05:30;;;;;;;0.20;0.20;;;;;;;8.81;100.00;101163.72;5045818;28;20044;-85
2021/11/05 11:08:01;;;;;;;0.20;0.20;;;;;;;8.81;100.00;101167.28;5044406;28;20068;-83
2021/11/05 11:10:36;;;;;;;0.20;0.20;;;;;;;8.90;100.00;101158.66;5044661;28;20049;-82
2021/11/05 11:13:30;;;;;;;0.20;0.20;;;;;;;8.89;100.00;101163.25;5040188;28;20057;-84
2021/11/05 11:15:59;;;;;;;0.20;0.20;;;;;;;8.93;100.00;101158.16;5042023;28;20303;-84
2021/11/05 11:18:46;;;;;;;0.20;0.20;;;;;;;9.04;100.00;101161.78;5036284;28;20049;-84
2021/11/05 11:21:21;;;;;;;0.30;0.30;;;;;;;9.11;100.00;101159.66;5061476;28;20060;-81
2021/11/05 11:23:50;;;;;;;0.52;0.30;;;;;;;9.08;100.00;101157.47;5061862;28;20064;-83
2021/11/05 11:26:24;;;;;;;0.30;0.30;;;;;;;9.13;100.00;101157.53;5044971;28;20402;-81
2021/11/05 11:28:58;;;;;;;0.20;0.20;;;;;;;9.11;100.00;101165.91;5043302;28;20045;-84
2021/11/05 11:31:32;;;;;;;0.20;0.20;;;;;;;9.22;100.00;101169.53;5039769;28;20067;-81
2021/11/05 11:34:09;;;;;;;0.20;0.20;;;;;;;9.18;100.00;101168.41;5068362;28;20052;-85
2021/11/05 11:36:45;;;;;;;0.20;0.20;;;;;;;9.30;100.00;101171.78;5042459;28;20060;-82
2021/11/05 11:39:20;;;;;;;0.20;0.20;;;;;;;9.40;100.00;101164.78;5034079;28;20069;-83
2021/11/05 11:41:56;;;;;;;0.20;0.20;;;;;;;9.25;100.00;101170.91;5036994;28;20404;-85
2021/11/05 11:44:33;;;;;;;0.20;0.20;;;;;;;9.36;100.00;101167.22;5038890;28;20489;-82
2021/11/05 11:47:07;;;;;;;0.22;0.22;;;;;;;9.35;100.00;101173.75;5041769;28;20056;-83